createdAt,value
2017-09-07T00:01:16.948Z,63.70
2017-09-07T00:03:44.492Z,63.70
2017-09-07T00:06:12.020Z,63.90
2017-09-07T00:08:39.608Z,64.50
2017-09-07T00:11:07.143Z,64.70
2017-09-07T00:13:35.439Z,64.60
2017-09-07T00:16:03.008Z,64.60
2017-09-07T00:18:30.539Z,65.10
2017-09-07T00:20:58.082Z,65.40
2017-09-07T00:23:25.664Z,65.60
2017-09-07T00:25:53.960Z,66.00
2017-09-07T00:28:21.484Z,65.90
2017-09-07T00:30:49.097Z,65.90
2017-09-07T00:33:16.651Z,65.70
2017-09-07T00:35:44.955Z,65.80
2017-09-07T00:38:12.520Z,65.70
2017-09-07T00:40:40.059Z,65.90
2017-09-07T00:43:07.588Z,66.30
2017-09-07T00:45:35.965Z,66.10
2017-09-07T00:48:03.529Z,66.00
2017-09-07T00:50:31.071Z,66.40
2017-09-07T00:52:59.424Z,66.80
2017-09-07T00:55:26.964Z,66.80
2017-09-07T00:57:54.511Z,66.90
2017-09-07T01:00:22.071Z,66.90
2017-09-07T01:02:50.095Z,66.80
2017-09-07T01:05:17.640Z,67.30
2017-09-07T01:07:45.212Z,66.90
2017-09-07T01:10:13.658Z,67.80
2017-09-07T01:12:41.195Z,67.50
2017-09-07T01:15:08.785Z,67.50
2017-09-07T01:17:36.383Z,67.60
2017-09-07T01:20:03.915Z,67.30
2017-09-07T01:22:31.485Z,67.70
2017-09-07T01:24:59.023Z,67.80
2017-09-07T01:27:26.555Z,68.10
2017-09-07T01:29:54.156Z,67.90
2017-09-07T01:32:21.689Z,68.20
2017-09-07T01:34:49.223Z,68.40
2017-09-07T01:37:16.831Z,68.60
2017-09-07T01:39:44.368Z,68.70
2017-09-07T01:42:11.909Z,68.70
2017-09-07T01:44:39.465Z,68.90
2017-09-07T01:47:06.991Z,69.20
2017-09-07T01:49:34.528Z,69.00
2017-09-07T01:52:02.088Z,69.10
2017-09-07T01:54:29.783Z,69.20
2017-09-07T01:56:58.079Z,69.20
2017-09-07T01:59:25.658Z,69.10
2017-09-07T02:01:53.200Z,68.90
2017-09-07T02:04:20.916Z,68.70
2017-09-07T02:06:48.477Z,68.70
2017-09-07T02:09:16.386Z,68.60
2017-09-07T02:11:43.915Z,68.40
2017-09-07T02:14:12.263Z,69.00
2017-09-07T02:16:39.791Z,68.90
2017-09-07T02:19:07.323Z,69.00
2017-09-07T02:21:34.908Z,69.20
2017-09-07T02:24:02.472Z,69.10
2017-09-07T02:26:30.013Z,68.90
2017-09-07T02:28:57.571Z,69.20
2017-09-07T02:31:25.872Z,69.20
2017-09-07T02:33:53.412Z,69.10
2017-09-07T02:36:21.009Z,69.40
2017-09-07T02:38:48.532Z,69.50
2017-09-07T02:41:16.456Z,70.10
2017-09-07T02:43:44.048Z,70.10
2017-09-07T02:46:11.579Z,70.10
2017-09-07T02:48:39.113Z,70.00
2017-09-07T02:51:07.451Z,69.80
2017-09-07T02:53:34.984Z,69.70
2017-09-07T02:56:02.517Z,69.30
2017-09-07T02:58:30.079Z,69.20
2017-09-07T03:00:57.616Z,68.90
2017-09-07T03:03:25.143Z,68.50
2017-09-07T03:05:53.787Z,67.40
2017-09-07T03:08:21.320Z,67.20
2017-09-07T03:10:48.850Z,67.40
2017-09-07T03:13:16.508Z,67.50
2017-09-07T03:15:44.821Z,68.10
2017-09-07T03:18:12.365Z,67.20
2017-09-07T03:20:40.684Z,67.00
2017-09-07T03:23:08.211Z,66.90
2017-09-07T03:25:35.752Z,66.40
2017-09-07T03:28:04.132Z,65.70
2017-09-07T03:30:31.672Z,65.70
2017-09-07T03:32:59.215Z,66.20
2017-09-07T03:35:26.776Z,65.70
2017-09-07T03:37:54.308Z,65.40
2017-09-07T03:40:21.850Z,65.50
2017-09-07T03:42:49.440Z,65.90
2017-09-07T03:45:16.976Z,66.10
2017-09-07T03:47:44.511Z,66.30
2017-09-07T03:50:12.108Z,65.80
2017-09-07T03:52:39.648Z,66.50
2017-09-07T03:55:07.188Z,66.40
2017-09-07T03:57:34.752Z,66.60
2017-09-07T04:00:03.059Z,66.90
2017-09-07T04:02:30.592Z,66.80
2017-09-07T04:04:58.159Z,67.10
2017-09-07T04:07:25.902Z,66.90
2017-09-07T04:09:53.449Z,66.80
2017-09-07T04:12:21.041Z,67.00
2017-09-07T04:14:49.337Z,67.30
2017-09-07T04:17:16.868Z,66.50
2017-09-07T04:19:45.195Z,66.20
2017-09-07T04:22:12.727Z,66.10
2017-09-07T04:24:40.269Z,66.10
2017-09-07T04:27:07.829Z,66.00
2017-09-07T04:29:35.364Z,65.80
2017-09-07T04:32:02.896Z,65.50
2017-09-07T04:34:30.496Z,65.60
2017-09-07T04:36:58.033Z,65.70
2017-09-07T04:39:25.575Z,65.40
2017-09-07T04:41:53.160Z,65.50
2017-09-07T04:44:20.709Z,65.50
2017-09-07T04:46:48.246Z,65.50
2017-09-07T04:49:17.276Z,65.20
2017-09-07T04:51:44.811Z,65.20
2017-09-07T04:54:12.345Z,65.50
2017-09-07T04:56:39.927Z,65.90
2017-09-07T04:59:07.460Z,66.10
2017-09-07T05:01:34.996Z,66.20
2017-09-07T05:04:02.573Z,65.80
2017-09-07T05:06:30.108Z,65.70
2017-09-07T05:08:58.304Z,66.00
2017-09-07T05:11:25.864Z,67.00
2017-09-07T05:13:53.399Z,66.50
2017-09-07T05:16:20.939Z,66.60
2017-09-07T05:18:48.536Z,66.80
2017-09-07T05:21:16.475Z,67.10
2017-09-07T05:23:44.014Z,67.00
2017-09-07T05:26:11.993Z,66.90
2017-09-07T05:28:39.542Z,66.90
2017-09-07T05:31:07.083Z,66.50
2017-09-07T05:33:34.672Z,66.70
2017-09-07T05:36:02.223Z,66.70
2017-09-07T05:38:29.766Z,66.30
2017-09-07T05:40:57.351Z,66.70
2017-09-07T05:43:24.884Z,66.50
2017-09-07T05:45:52.411Z,66.40
2017-09-07T05:48:20.733Z,67.90
2017-09-07T05:50:48.255Z,67.70
2017-09-07T05:53:16.492Z,68.60
2017-09-07T05:55:44.076Z,69.40
2017-09-07T05:58:12.375Z,70.00
2017-09-07T06:00:39.904Z,69.90
2017-09-07T06:03:08.264Z,71.00
2017-09-07T06:05:35.791Z,71.00
2017-09-07T06:08:03.328Z,70.10
2017-09-07T06:10:31.443Z,70.40
2017-09-07T06:12:58.971Z,70.40
2017-09-07T06:15:26.512Z,71.40
2017-09-07T06:17:54.839Z,72.10
2017-09-07T06:20:22.382Z,72.10
2017-09-07T06:22:49.929Z,71.60
2017-09-07T06:25:17.513Z,70.90
2017-09-07T06:27:45.043Z,71.50
2017-09-07T06:30:14.263Z,73.50
2017-09-07T06:32:42.588Z,73.10
2017-09-07T06:35:10.119Z,73.10
2017-09-07T06:37:37.653Z,72.50
2017-09-07T06:40:05.221Z,71.30
2017-09-07T06:42:34.982Z,71.20
2017-09-07T06:45:03.286Z,69.70
2017-09-07T06:47:30.875Z,69.60
2017-09-07T06:49:58.431Z,68.50
2017-09-07T06:52:25.968Z,68.00
2017-09-07T06:54:54.005Z,67.80
2017-09-07T06:57:21.663Z,66.80
2017-09-07T06:59:49.196Z,67.50
2017-09-07T07:02:16.948Z,66.80
2017-09-07T07:04:44.489Z,67.90
2017-09-07T07:07:12.032Z,68.40
2017-09-07T07:09:40.384Z,68.80
2017-09-07T07:12:08.389Z,68.80
2017-09-07T07:14:36.475Z,69.10
2017-09-07T07:17:04.068Z,69.20
2017-09-07T07:19:31.633Z,68.00
2017-09-07T07:21:59.535Z,68.10
2017-09-07T07:24:27.188Z,68.50
2017-09-07T07:26:54.785Z,68.50
2017-09-07T07:29:22.340Z,67.10
2017-09-07T07:31:50.116Z,65.20
2017-09-07T07:34:17.652Z,63.70
2017-09-07T07:36:45.222Z,64.50
2017-09-07T07:39:13.754Z,62.90
2017-09-07T07:41:41.304Z,62.40
2017-09-07T07:44:08.825Z,61.10
2017-09-07T07:46:36.431Z,59.40
2017-09-07T07:49:04.008Z,56.80
2017-09-07T07:51:31.539Z,52.10
2017-09-07T07:53:59.123Z,52.80
2017-09-07T07:56:26.653Z,54.80
2017-09-07T07:58:54.198Z,55.30
2017-09-07T08:01:21.779Z,57.30
2017-09-07T08:03:49.313Z,58.40
2017-09-07T08:06:16.848Z,59.90
2017-09-07T08:08:45.213Z,59.20
2017-09-07T08:11:14.462Z,59.70
2017-09-07T08:13:42.515Z,59.50
2017-09-07T08:16:10.124Z,59.50
2017-09-07T08:18:37.663Z,58.60
2017-09-07T08:21:05.277Z,59.60
2017-09-07T08:23:33.604Z,58.00
2017-09-07T08:26:01.177Z,57.90
2017-09-07T08:28:28.711Z,58.40
2017-09-07T08:30:56.371Z,59.70
2017-09-07T08:33:23.933Z,59.90
2017-09-07T08:35:51.514Z,60.40
2017-09-07T08:38:19.161Z,59.40
2017-09-07T08:40:46.801Z,60.50
2017-09-07T08:43:16.489Z,60.00
2017-09-07T08:45:44.060Z,60.00
2017-09-07T08:48:20.300Z,59.80
2017-09-07T08:50:48.742Z,58.50
2017-09-07T08:53:16.400Z,58.40
2017-09-07T08:55:43.932Z,58.80
2017-09-07T08:58:11.527Z,59.10
2017-09-07T09:00:39.112Z,57.90
2017-09-07T09:03:06.672Z,57.30
2017-09-07T09:05:34.281Z,57.80
2017-09-07T09:08:01.837Z,56.20
2017-09-07T09:10:29.395Z,55.60
2017-09-07T09:12:57.031Z,54.00
2017-09-07T09:15:25.369Z,53.00
2017-09-07T09:17:52.899Z,52.40
2017-09-07T09:20:22.921Z,53.10
2017-09-07T09:22:50.463Z,52.30
2017-09-07T09:25:18.012Z,51.60
2017-09-07T09:27:45.574Z,51.30
2017-09-07T09:30:14.635Z,49.10
2017-09-07T09:32:42.167Z,48.70
2017-09-07T09:35:09.727Z,46.40
2017-09-07T09:37:37.265Z,43.80
2017-09-07T09:40:04.812Z,44.40
2017-09-07T09:42:32.412Z,44.10
2017-09-07T09:44:59.963Z,45.20
2017-09-07T09:47:28.287Z,44.80
2017-09-07T09:49:55.850Z,44.70
2017-09-07T09:52:24.335Z,43.10
2017-09-07T10:00:00.066Z,41.90
2017-09-07T10:02:27.699Z,40.00
2017-09-07T10:04:55.325Z,41.20
2017-09-07T10:07:22.863Z,41.00
2017-09-07T10:09:50.420Z,40.80
2017-09-07T10:12:17.979Z,40.80
2017-09-07T10:14:45.533Z,40.80
2017-09-07T10:17:15.933Z,40.40
2017-09-07T10:19:43.532Z,40.30
2017-09-07T10:22:11.097Z,39.80
2017-09-07T10:24:38.738Z,38.70
2017-09-07T10:27:06.313Z,38.60
2017-09-07T10:29:33.852Z,38.50
2017-09-07T10:32:01.421Z,38.30
2017-09-07T10:34:28.960Z,38.60
2017-09-07T10:36:57.661Z,38.60
2017-09-07T10:39:25.270Z,38.50
2017-09-07T10:41:53.852Z,39.90
2017-09-07T10:44:21.421Z,40.00
2017-09-07T10:46:49.829Z,41.40
2017-09-07T10:49:17.401Z,41.40
2017-09-07T10:51:45.012Z,40.90
2017-09-07T10:54:14.314Z,38.90
2017-09-07T10:56:41.868Z,38.80
2017-09-07T10:59:09.552Z,39.70
2017-09-07T11:01:37.243Z,40.50
2017-09-07T11:04:04.980Z,41.00
2017-09-07T11:06:32.508Z,39.20
2017-09-07T11:09:00.144Z,40.70
2017-09-07T11:11:27.684Z,41.60
2017-09-07T11:13:55.219Z,41.50
2017-09-07T11:16:23.562Z,42.30
2017-09-07T11:18:51.814Z,42.30
2017-09-07T11:21:19.372Z,42.50
2017-09-07T11:23:47.141Z,41.40
2017-09-07T11:26:16.501Z,42.30
2017-09-07T11:28:44.130Z,42.40
2017-09-07T11:31:11.744Z,41.80
2017-09-07T11:33:39.331Z,44.50
2017-09-07T11:36:07.556Z,45.30
2017-09-07T11:38:35.145Z,44.40
2017-09-07T11:41:02.863Z,41.30
2017-09-07T11:43:30.794Z,42.40
2017-09-07T11:45:58.476Z,42.30
2017-09-07T11:48:27.258Z,42.40
2017-09-07T11:50:54.816Z,42.80
2017-09-07T11:53:22.411Z,44.60
2017-09-07T11:55:50.036Z,44.10
2017-09-07T11:58:17.656Z,44.50
2017-09-07T12:00:45.238Z,43.80
2017-09-07T12:03:14.827Z,43.80
2017-09-07T12:05:42.368Z,44.20
2017-09-07T12:08:09.930Z,43.40
2017-09-07T12:10:37.542Z,44.50
2017-09-07T12:13:05.174Z,44.30
2017-09-07T12:15:32.763Z,44.90
2017-09-07T12:18:00.292Z,44.50
2017-09-07T12:20:28.973Z,44.50
2017-09-07T12:22:57.304Z,44.20
2017-09-07T12:25:24.840Z,44.20
2017-09-07T12:27:55.223Z,45.20
2017-09-07T12:30:23.576Z,44.50
2017-09-07T12:32:53.152Z,44.50
2017-09-07T12:35:20.700Z,45.20
2017-09-07T12:37:48.323Z,44.30
2017-09-07T12:40:29.257Z,45.40
2017-09-07T12:45:48.347Z,44.60
2017-09-07T12:48:16.532Z,45.70
2017-09-07T12:50:44.124Z,44.50
2017-09-07T12:53:12.919Z,45.10
2017-09-07T12:55:40.452Z,45.00
2017-09-07T12:58:08.056Z,45.00
2017-09-07T13:00:35.644Z,44.30
2017-09-07T13:03:03.181Z,45.10
2017-09-07T13:05:30.734Z,44.90
2017-09-07T13:07:58.291Z,44.90
2017-09-07T13:10:26.468Z,46.40
2017-09-07T13:12:54.021Z,46.90
2017-09-07T13:15:21.611Z,47.70
2017-09-07T13:17:49.152Z,48.20
2017-09-07T13:20:16.690Z,48.90
2017-09-07T13:22:45.304Z,49.10
2017-09-07T13:25:14.625Z,49.00
2017-09-07T13:27:42.272Z,50.10
2017-09-07T13:30:09.868Z,51.50
2017-09-07T13:32:38.396Z,52.10
2017-09-07T13:35:05.980Z,52.10
2017-09-07T13:37:34.687Z,53.50
2017-09-07T13:40:02.244Z,53.40
2017-09-07T13:42:29.785Z,54.20
2017-09-07T13:44:58.047Z,53.00
2017-09-07T13:47:25.588Z,51.80
2017-09-07T13:49:53.119Z,51.00
2017-09-07T13:52:20.701Z,50.60
2017-09-07T13:54:49.012Z,50.00
2017-09-07T13:57:16.549Z,50.00
2017-09-07T13:59:44.893Z,49.40
2017-09-07T14:02:12.430Z,49.30
2017-09-07T14:04:39.968Z,49.80
2017-09-07T14:07:07.545Z,50.40
2017-09-07T14:09:35.119Z,50.20
2017-09-07T14:12:02.653Z,50.50
2017-09-07T14:14:30.216Z,51.00
2017-09-07T14:16:58.687Z,50.10
2017-09-07T14:19:26.228Z,49.60
2017-09-07T14:21:53.822Z,49.80
2017-09-07T14:24:21.568Z,50.80
2017-09-07T14:26:49.105Z,50.90
2017-09-07T14:29:17.424Z,50.30
2017-09-07T14:31:44.997Z,50.20
2017-09-07T14:34:14.213Z,50.10
2017-09-07T14:36:41.769Z,50.10
2017-09-07T14:39:09.308Z,50.20
2017-09-07T14:41:36.859Z,50.80
2017-09-07T14:44:04.495Z,51.50
2017-09-07T14:46:32.031Z,50.40
2017-09-07T14:48:59.569Z,49.20
2017-09-07T14:51:27.161Z,49.60
2017-09-07T14:53:54.704Z,49.30
2017-09-07T14:56:22.245Z,49.80
2017-09-07T14:58:49.810Z,49.80
2017-09-07T15:01:17.344Z,49.60
2017-09-07T15:03:44.872Z,50.10
2017-09-07T15:06:12.480Z,49.00
2017-09-07T15:08:40.012Z,48.00
2017-09-07T15:11:07.544Z,47.90
2017-09-07T15:13:35.092Z,48.90
2017-09-07T15:16:02.640Z,48.30
2017-09-07T15:18:30.208Z,49.30
2017-09-07T15:20:57.759Z,50.30
2017-09-07T15:23:25.291Z,49.70
2017-09-07T15:25:52.965Z,48.80
2017-09-07T15:28:21.032Z,48.30
2017-09-07T15:30:48.568Z,48.00
2017-09-07T15:33:17.157Z,48.30
2017-09-07T15:35:44.713Z,48.30
2017-09-07T15:38:12.241Z,47.60
2017-09-07T15:40:39.783Z,48.20
2017-09-07T15:43:07.342Z,48.70
2017-09-07T15:45:34.872Z,47.90
2017-09-07T15:48:02.416Z,47.30
2017-09-07T15:50:30.024Z,47.70
2017-09-07T15:52:57.557Z,48.00
2017-09-07T15:55:25.091Z,47.40
2017-09-07T15:57:52.648Z,48.00
2017-09-07T16:00:20.225Z,46.90
2017-09-07T16:02:47.768Z,46.90
2017-09-07T16:05:16.563Z,47.20
2017-09-07T16:07:44.223Z,48.00
2017-09-07T16:10:11.800Z,48.30
2017-09-07T16:12:39.460Z,46.10
2017-09-07T16:15:07.094Z,46.70
2017-09-07T16:17:34.754Z,47.90
2017-09-07T16:20:02.387Z,46.90
2017-09-07T16:22:30.024Z,48.50
2017-09-07T16:24:57.586Z,48.00
2017-09-07T16:27:25.224Z,47.30
2017-09-07T16:29:52.822Z,48.70
2017-09-07T16:32:20.363Z,48.60
2017-09-07T16:34:47.952Z,48.90
2017-09-07T16:37:16.541Z,49.70
2017-09-07T16:39:44.085Z,49.40
2017-09-07T16:42:11.648Z,50.50
2017-09-07T16:44:39.182Z,50.40
2017-09-07T16:47:06.723Z,51.20
2017-09-07T16:49:34.271Z,51.20
2017-09-07T16:52:01.804Z,52.20
2017-09-07T16:54:29.339Z,51.30
2017-09-07T16:56:57.230Z,51.90
2017-09-07T16:59:24.776Z,51.80
2017-09-07T17:01:53.116Z,52.70
2017-09-07T17:04:20.704Z,52.10
2017-09-07T17:06:48.237Z,52.80
2017-09-07T17:09:17.204Z,54.20
2017-09-07T17:11:44.763Z,54.00
2017-09-07T17:14:12.296Z,54.10
2017-09-07T17:16:39.849Z,53.80
2017-09-07T17:19:07.432Z,54.10
2017-09-07T17:21:35.008Z,54.40
2017-09-07T17:24:02.551Z,53.70
2017-09-07T17:26:30.119Z,54.70
2017-09-07T17:28:58.279Z,55.30
2017-09-07T17:31:25.837Z,55.90
2017-09-07T17:33:54.208Z,56.10
2017-09-07T17:36:21.821Z,55.60
2017-09-07T17:38:49.357Z,55.90
2017-09-07T17:41:17.000Z,56.10
2017-09-07T17:43:45.412Z,55.90
2017-09-07T17:46:15.471Z,56.90
2017-09-07T17:48:43.087Z,56.80
2017-09-07T17:51:10.623Z,56.40
2017-09-07T17:53:38.259Z,56.50
2017-09-07T17:56:05.815Z,57.00
2017-09-07T17:58:33.360Z,57.40
2017-09-07T18:01:00.936Z,58.20
2017-09-07T18:03:28.594Z,58.30
2017-09-07T18:05:56.205Z,58.90
2017-09-07T18:08:23.739Z,59.40
2017-09-07T18:10:51.486Z,59.60
2017-09-07T18:13:19.020Z,60.10
2017-09-07T18:15:46.564Z,60.60
2017-09-07T18:18:26.601Z,61.10
2017-09-07T18:23:50.108Z,61.60
2017-09-07T18:26:19.005Z,61.90
2017-09-07T18:28:46.548Z,62.80
2017-09-07T18:31:25.642Z,62.60
2017-09-07T18:33:53.260Z,62.60
2017-09-07T18:36:20.797Z,63.10
2017-09-07T18:38:48.358Z,62.60
2017-09-07T18:41:16.535Z,62.60
2017-09-07T18:43:44.069Z,63.40
2017-09-07T18:46:11.700Z,64.20
2017-09-07T18:48:39.317Z,64.70
2017-09-07T18:51:06.871Z,65.10
2017-09-07T18:53:34.675Z,65.20
2017-09-07T18:56:03.518Z,65.30
2017-09-07T18:58:31.092Z,65.30
2017-09-07T19:00:58.663Z,65.10
2017-09-07T19:03:26.217Z,65.10
2017-09-07T19:05:54.198Z,64.90
2017-09-07T19:08:21.866Z,64.40
2017-09-07T19:10:49.624Z,64.20
2017-09-07T19:13:17.230Z,64.30
2017-09-07T19:15:44.871Z,64.30
2017-09-07T19:18:12.424Z,64.70
2017-09-07T19:20:40.238Z,65.00
2017-09-07T19:23:08.075Z,65.40
2017-09-07T19:25:38.928Z,65.30
2017-09-07T19:28:06.564Z,65.80
2017-09-07T19:30:34.210Z,66.00
2017-09-07T19:33:02.308Z,65.60
2017-09-07T19:35:30.735Z,66.20
2017-09-07T19:37:58.320Z,66.20
2017-09-07T19:40:25.863Z,66.50
2017-09-07T19:42:53.421Z,66.70
2017-09-07T19:45:21.048Z,66.80
2017-09-07T19:47:48.581Z,67.10
2017-09-07T19:50:17.228Z,67.20
2017-09-07T19:52:44.816Z,67.20
2017-09-07T19:55:12.352Z,67.40
2017-09-07T19:57:39.884Z,68.10
2017-09-07T20:00:07.523Z,67.90
2017-09-07T20:02:35.887Z,68.00
2017-09-07T20:05:03.469Z,68.00
2017-09-07T20:07:31.131Z,68.70
2017-09-07T20:09:58.716Z,68.70
2017-09-07T20:12:26.247Z,69.20
2017-09-07T20:14:54.720Z,69.50
2017-09-07T20:17:22.331Z,68.70
2017-09-07T20:19:49.935Z,69.00
2017-09-07T20:22:17.562Z,69.00
2017-09-07T20:24:45.206Z,70.10
2017-09-07T20:27:13.795Z,70.30
2017-09-07T20:29:41.371Z,70.40
2017-09-07T20:32:08.908Z,70.10
2017-09-07T20:34:36.719Z,70.10
2017-09-07T20:37:04.304Z,70.10
2017-09-07T20:39:31.942Z,69.90
2017-09-07T20:41:59.484Z,69.40
2017-09-07T20:44:27.084Z,69.70
2017-09-07T20:46:55.181Z,70.10
2017-09-07T20:49:22.772Z,69.60
2017-09-07T20:51:50.428Z,69.70
2017-09-07T20:54:18.066Z,70.40
2017-09-07T20:56:45.620Z,70.40
2017-09-07T20:59:14.627Z,70.40
2017-09-07T21:01:42.165Z,70.90
2017-09-07T21:04:10.528Z,70.50
2017-09-07T21:06:38.100Z,70.40
2017-09-07T21:09:06.399Z,70.40
2017-09-07T21:11:33.936Z,70.30
2017-09-07T21:14:01.498Z,70.10
2017-09-07T21:16:29.068Z,70.20
2017-09-07T21:18:57.363Z,70.30
2017-09-07T21:21:24.977Z,70.20
2017-09-07T21:23:52.537Z,70.50
2017-09-07T21:26:20.076Z,70.50
2017-09-07T21:28:47.640Z,70.50
2017-09-07T21:31:15.630Z,70.80
2017-09-07T21:33:43.176Z,71.20
2017-09-07T21:36:11.138Z,70.90
2017-09-07T21:38:38.675Z,71.20
2017-09-07T21:41:06.204Z,71.50
2017-09-07T21:43:33.795Z,71.80
2017-09-07T21:46:02.095Z,72.20
2017-09-07T21:48:32.004Z,72.10
2017-09-07T21:50:59.602Z,72.40
2017-09-07T21:53:36.151Z,72.40
2017-09-07T21:56:03.714Z,72.40
2017-09-07T21:58:31.251Z,72.50
2017-09-07T22:00:58.783Z,72.30
2017-09-07T22:03:26.386Z,72.20
2017-09-07T22:05:53.933Z,72.30
2017-09-07T22:08:21.476Z,72.70
2017-09-07T22:10:49.088Z,72.90
2017-09-07T22:13:17.455Z,73.20
2017-09-07T22:15:44.992Z,73.30
2017-09-07T22:18:14.316Z,72.30
2017-09-07T22:20:41.840Z,72.20
2017-09-07T22:23:09.367Z,72.70
2017-09-07T22:25:37.183Z,72.80
2017-09-07T22:28:04.767Z,72.10
2017-09-07T22:30:32.302Z,72.10
2017-09-07T22:32:59.861Z,72.10
2017-09-07T22:35:27.395Z,72.30
2017-09-07T22:37:55.331Z,72.20
2017-09-07T22:40:23.657Z,72.50
2017-09-07T22:42:51.195Z,72.30
2017-09-07T22:45:18.804Z,72.50
2017-09-07T22:47:46.444Z,72.10
2017-09-07T22:50:15.580Z,71.80
2017-09-07T22:52:43.959Z,72.10
2017-09-07T22:55:11.535Z,72.20
2017-09-07T22:57:39.069Z,72.10
2017-09-07T23:00:06.599Z,72.00
2017-09-07T23:02:34.168Z,72.10
2017-09-07T23:05:01.699Z,72.30
2017-09-07T23:07:29.301Z,72.00
2017-09-07T23:09:56.884Z,72.10
2017-09-07T23:12:24.419Z,73.10
2017-09-07T23:14:52.319Z,73.60
2017-09-07T23:17:19.876Z,73.80
2017-09-07T23:19:47.408Z,73.90
2017-09-07T23:22:17.727Z,74.10
2017-09-07T23:24:46.357Z,74.10
2017-09-07T23:27:16.401Z,74.00
2017-09-07T23:29:44.090Z,74.00
2017-09-07T23:32:11.751Z,73.90
2017-09-07T23:34:39.278Z,73.80
2017-09-07T23:37:06.897Z,73.70
2017-09-07T23:39:35.022Z,73.80
2017-09-07T23:42:02.554Z,74.00
2017-09-07T23:44:30.847Z,74.40
2017-09-07T23:46:58.408Z,74.30
2017-09-07T23:49:25.939Z,74.40
2017-09-07T23:51:54.248Z,74.70
2017-09-07T23:54:21.843Z,74.70
2017-09-07T23:56:49.381Z,74.70
2017-09-07T23:59:16.915Z,74.90
